Terminal Aerodrome Forecast
Issued by NWS

Home | Current Version | Previous Version | Text Only | Print | Product List | Glossary On
Versions: 1 2 3 4 5 6 7 8 9 10 11 12 13 14 15
000
FTUS42 KJAX 260500 RRA
TAFVQQ
TAF
KVQQ 260552Z 2606/2706 00000KT P6SM SKC
      TEMPO 2607/2611 4SM BR
     FM261500 31005KT P6SM SKC
     FM262000 VRB03KT P6SM SKC
     FM270000 00000KT P6SM SKC=

USA.gov is the U.S. government's official web portal to all federal, state and local government web resources and services.